تهران, ایران

10:48 AM +0330 on ژانویه 17, 2019 (GMT +0330)
Mehrabad International | | Change Station

Elev 3907 ft 35.68 °N, 51.35 °E | Updated 18 minutes ago

نيم ابرى
نيم ابرى
50 °F
Feels Like 50 °F
N
14
باد متغير باد from جنوب شرقی

امروز
High -- | Low -- °F
--% Chance of Precip.
دیروز
High -- | Low -- °F
Precip. -- در
فشار 29.71 در
ديد 6.2 مايل، ميل (در برابر كيلومتر
ابری Few 3000 ft
ابرهای پراکنده 3000 ft
بیشتر ابری 9000 ft
قطره شبنم 37 °F
رطوبت 62%
بارش باران 0.00 در
برف عمیق Not available.
7:10 AM 5:12 PM
Waxing Gibbous, 80% visible
METAR OIII 170700Z 14012KT 9999 FEW030CB SCT030 BKN090 10/03 Q1006 A2972 NOSIG
فشار 29.71 در
ديد 6.2 مايل، ميل (در برابر كيلومتر
ابری Few 3000 ft
ابرهای پراکنده 3000 ft
بیشتر ابری 9000 ft
قطره شبنم 37 °F
رطوبت 62%
بارش باران 0.00 در
برف عمیق Not available.
7:10 AM 5:12 PM
Waxing Gibbous, 80% visible
METAR OIII 170700Z 14012KT 9999 FEW030CB SCT030 BKN090 10/03 Q1006 A2972 NOSIG

Get Severe Weather Alerts

Thanks for signing up!

Be on the lookout for a verification email in your inbox.

You'll start receiving the daily forecast at 6 AM.

×

10-Day Weather Forecast

Heavy Snow conditions possible.
No radar image for this location.
×

Almanac

ستاره شناسی

Jan. 17, 2019 Rise Set
وقت حقیقی
تاریک و روشن اجتماعی
تاریک روشن دریایی
شفق و فلق نجومی
ماه
میزان روشنایی روز
طول روز
Tomorrow will be .
, % of the Moon is Illuminated

Today's Extremes

Country Highs Country Lows

Community

WunderPhotos

Category 6

Welcome to Category 6. This is the collective home for Weather Underground's featured writeups by Dr. Jeff Masters (right), Bob Henson (left), Chris Burt, and other regular contributors.

Nearby

تمیزی هوا

  تمیزی هوا AQ Index آلاینده
Not available.

عمق برف

Station Depth Elevation

Earthquake Activity

شهر Distance Mag. Time & Date
Minimum magnitude displayed is 2.5.

Coastal Water Temperatures

منطقه درجه حرارت

Stations

Nearby Weather Stations

Station Location دما باد سرد قطره شبنم رطوبت باد Precip. Elev ارتقا دادن Type